Time;durP1;ratioP1;P1;durP2;ratioP2;P2;SDS_P1;SDS_P2;PMS_P1;PMS_P2;Temp;Humidity;BMP_temperature;BMP_pressure;BME280_temperature;BME280_humidity;BME280_pressure;Samples;Min_cycle;Max_cycle;Signal;HPM_P1;HPM_P2
2023/04/15 00:03:05;;;;;;;4.72;1.98;;;15.80;50.40;;;;;;20832535;28;20052;-54
2023/04/15 00:13:06;;;;;;;5.82;1.58;;;15.70;51.10;;;;;;20844142;28;20065;-54
2023/04/15 00:23:07;;;;;;;4.18;1.50;;;15.60;51.60;;;;;;20843652;28;20379;-55
2023/04/15 00:33:09;;;;;;;3.83;1.70;;;15.50;52.10;;;;;;20841570;28;20045;-54
2023/04/15 00:43:10;;;;;;;4.18;1.50;;;15.40;52.40;;;;;;20841293;28;20045;-54
2023/04/15 00:53:12;;;;;;;4.47;1.42;;;15.20;52.80;;;;;;20841522;28;20053;-55
2023/04/15 01:03:14;;;;;;;4.18;1.42;;;15.10;52.70;;;;;;20840736;28;20050;-57
2023/04/15 01:13:15;;;;;;;2.95;1.30;;;15.00;52.50;;;;;;20838108;28;20046;-55
2023/04/15 01:23:16;;;;;;;4.10;1.23;;;14.80;52.60;;;;;;20838857;28;20049;-55
2023/04/15 01:33:18;;;;;;;4.38;1.95;;;14.70;52.50;;;;;;20838005;28;20049;-56
2023/04/15 01:43:19;;;;;;;3.97;1.77;;;14.60;52.70;;;;;;20836105;28;20049;-54
2023/04/15 01:53:20;;;;;;;4.70;1.60;;;14.50;53.10;;;;;;20836619;28;20049;-53
2023/04/15 02:03:22;;;;;;;5.57;1.45;;;14.50;53.10;;;;;;20835909;28;20602;-55
2023/04/15 02:13:23;;;;;;;3.45;1.50;;;14.40;53.20;;;;;;20834885;28;20053;-56
2023/04/15 02:23:25;;;;;;;5.43;1.63;;;14.30;53.40;;;;;;20834505;28;20056;-55
2023/04/15 02:33:26;;;;;;;7.85;1.85;;;14.30;53.70;;;;;;20833549;28;20060;-57
2023/04/15 02:43:27;;;;;;;6.07;1.70;;;14.20;53.70;;;;;;20833078;28;20387;-55
2023/04/15 02:53:29;;;;;;;4.03;1.75;;;14.00;53.80;;;;;;20832860;28;20065;-56
2023/04/15 03:03:30;;;;;;;4.07;1.73;;;14.00;53.90;;;;;;20832102;28;20411;-55
2023/04/15 03:13:31;;;;;;;5.43;1.73;;;14.00;53.80;;;;;;20831114;28;20410;-55
2023/04/15 03:23:33;;;;;;;5.15;1.48;;;14.00;53.70;;;;;;20829812;28;20049;-55
2023/04/15 03:33:34;;;;;;;5.05;2.08;;;13.80;53.80;;;;;;20830804;28;20049;-54
2023/04/15 03:43:35;;;;;;;4.40;1.70;;;13.70;53.70;;;;;;20842791;28;20053;-55
2023/04/15 03:53:37;;;;;;;4.15;2.10;;;13.70;53.60;;;;;;20846347;28;20052;-54
2023/04/15 04:03:38;;;;;;;2.40;1.23;;;13.60;54.00;;;;;;20843856;28;20045;-55
2023/04/15 04:13:39;;;;;;;3.88;1.55;;;13.50;54.00;;;;;;20844431;28;20053;-56
2023/04/15 04:23:41;;;;;;;4.72;1.50;;;13.50;54.00;;;;;;20843785;28;20057;-55
2023/04/15 04:33:42;;;;;;;6.15;1.67;;;13.40;53.90;;;;;;20841192;28;20049;-53
2023/04/15 04:43:44;;;;;;;5.35;1.70;;;13.40;53.80;;;;;;20841090;28;20475;-53
2023/04/15 04:53:45;;;;;;;4.82;1.95;;;13.40;53.70;;;;;;20840769;28;20056;-53
2023/04/15 05:03:47;;;;;;;6.13;1.42;;;13.30;53.60;;;;;;20840496;28;20560;-54
2023/04/15 05:13:48;;;;;;;2.95;2.20;;;13.30;53.30;;;;;;20839960;28;20053;-54
2023/04/15 05:23:51;;;;;;;3.70;1.45;;;13.20;53.50;;;;;;20838003;28;20045;-55
2023/04/15 05:33:53;;;;;;;5.03;2.00;;;13.20;53.40;;;;;;20838280;28;20418;-54
2023/04/15 05:43:55;;;;;;;7.28;1.67;;;13.20;53.30;;;;;;20837305;28;20479;-54
2023/04/15 05:53:56;;;;;;;5.35;1.55;;;13.10;53.20;;;;;;20836722;28;20398;-54
2023/04/15 06:03:57;;;;;;;4.20;1.60;;;13.10;53.10;;;;;;20835264;28;20069;-55
2023/04/15 06:13:59;;;;;;;3.13;1.65;;;13.10;52.60;;;;;;20834074;28;20089;-56
2023/04/15 06:24:01;;;;;;;5.43;1.70;;;13.10;52.20;;;;;;20834431;28;20064;-54
2023/04/15 06:34:02;;;;;;;3.10;1.67;;;13.30;51.60;;;;;;20833955;28;20439;-54
2023/04/15 06:44:03;;;;;;;4.97;1.67;;;13.40;51.20;;;;;;20832639;28;20046;-56
2023/04/15 06:54:05;;;;;;;5.63;1.63;;;13.50;50.80;;;;;;20832367;28;20072;-55
2023/04/15 07:04:07;;;;;;;4.70;1.73;;;13.80;49.70;;;;;;20831752;28;20475;-55
2023/04/15 07:14:08;;;;;;;7.13;2.17;;;14.00;48.70;;;;;;20831148;28;20049;-55
2023/04/15 07:24:10;;;;;;;4.50;2.03;;;14.40;48.20;;;;;;20829453;28;20045;-56
2023/04/15 07:34:11;;;;;;;5.35;2.33;;;14.90;45.80;;;;;;20830122;28;20046;-54
2023/04/15 07:44:12;;;;;;;7.25;2.22;;;15.20;44.70;;;;;;20827998;28;20184;-55
2023/04/15 07:54:14;;;;;;;4.43;1.75;;;15.70;44.50;;;;;;20828934;28;20046;-54
2023/04/15 08:04:16;;;;;;;11.32;4.93;;;16.10;43.70;;;;;;20827548;28;20049;-55
2023/04/15 08:14:17;;;;;;;9.65;5.13;;;16.20;43.30;;;;;;20827566;28;20410;-55
2023/04/15 08:24:18;;;;;;;8.95;3.50;;;16.30;43.40;;;;;;20829162;28;20052;-55
2023/04/15 08:34:20;;;;;;;8.60;4.75;;;16.40;42.60;;;;;;20842389;28;20053;-55
2023/04/15 08:44:24;;;;;;;9.40;5.28;;;16.50;42.70;;;;;;20841720;28;20073;-55
2023/04/15 08:54:27;;;;;;;5.03;1.85;;;16.80;42.00;;;;;;20840189;28;20054;-56
2023/04/15 09:04:28;;;;;;;3.53;1.50;;;17.10;41.20;;;;;;20840513;28;20042;-56
2023/04/15 09:14:31;;;;;;;8.30;2.00;;;17.30;40.70;;;;;;20838275;28;20095;-55
2023/04/15 09:24:39;;;;;;;4.78;2.00;;;17.40;40.20;;;;;;20838735;28;20457;-55
2023/04/15 09:34:41;;;;;;;7.25;2.97;;;17.70;39.60;;;;;;20837984;28;20049;-55
2023/04/15 09:44:43;;;;;;;7.32;3.72;;;18.00;38.40;;;;;;20837652;28;20060;-56
2023/04/15 09:54:44;;;;;;;6.90;3.65;;;18.10;38.40;;;;;;20835916;28;20050;-56
2023/04/15 10:04:48;;;;;;;9.10;2.60;;;18.20;38.10;;;;;;20836091;28;20049;-56
2023/04/15 10:14:55;;;;;;;;;;;18.40;37.50;;;;;;20834834;28;20517;-55
2023/04/15 10:24:58;;;;;;;7.57;2.78;;;18.50;37.70;;;;;;20833812;28;19921;-56
2023/04/15 10:35:01;;;;;;;7.93;5.20;;;18.70;37.00;;;;;;20833290;28;20063;-56
2023/04/15 10:45:03;;;;;;;8.40;4.82;;;18.70;36.80;;;;;;20832042;28;20478;-58
2023/04/15 10:55:16;;;;;;;6.93;3.00;;;18.90;35.30;;;;;;20831948;28;20183;-56
2023/04/15 11:05:18;;;;;;;;;;;19.10;36.20;;;;;;20830834;28;20049;-56
2023/04/15 11:15:36;;;;;;;4.68;2.58;;;19.40;35.40;;;;;;20829926;28;19925;-55
2023/04/15 11:25:37;;;;;;;8.48;4.70;;;19.60;33.70;;;;;;20830122;28;20084;-57
2023/04/15 11:35:41;;;;;;;6.45;2.80;;;19.70;33.50;;;;;;20830286;28;20088;-56
2023/04/15 11:45:48;;;;;;;4.30;1.90;;;20.10;33.90;;;;;;20829565;28;20088;-57
2023/04/15 11:55:51;;;;;;;5.63;2.50;;;20.20;33.10;;;;;;20829010;28;20056;-57
2023/04/15 12:06:12;;;;;;;8.27;2.85;;;20.30;32.90;;;;;;20841443;28;20056;-57
2023/04/15 12:16:21;;;;;;;8.45;2.60;;;20.60;31.90;;;;;;20843215;28;20533;-56
2023/04/15 12:26:35;;;;;;;3.80;2.28;;;20.70;32.30;;;;;;20842650;28;20050;-56
2023/04/15 12:36:37;;;;;;;4.85;2.25;;;20.50;31.60;;;;;;20842451;28;20049;-56
2023/04/15 12:46:38;;;;;;;5.75;2.70;;;20.60;31.70;;;;;;20841570;28;20503;-57
2023/04/15 12:56:39;;;;;;;3.85;2.10;;;21.00;31.70;;;;;;20840998;28;20414;-57
2023/04/15 13:06:41;;;;;;;6.72;2.97;;;21.20;30.80;;;;;;20838601;28;20132;-57
2023/04/15 13:16:43;;;;;;;5.95;2.35;;;21.40;31.10;;;;;;20837408;28;20053;-56
2023/04/15 13:26:44;;;;;;;6.95;1.98;;;21.60;30.80;;;;;;20838599;28;20057;-56
2023/04/15 13:36:46;;;;;;;5.20;2.10;;;21.70;30.30;;;;;;20836226;28;20049;-56
2023/04/15 13:46:47;;;;;;;5.03;2.33;;;21.80;30.20;;;;;;20837231;28;20524;-57
2023/04/15 13:56:49;;;;;;;4.70;2.22;;;21.80;30.30;;;;;;20836758;28;20056;-55
2023/04/15 14:06:50;;;;;;;5.78;2.85;;;21.70;30.50;;;;;;20835039;28;20446;-57
2023/04/15 14:16:52;;;;;;;6.05;3.05;;;21.70;30.50;;;;;;20833283;28;20060;-56
2023/04/15 14:26:53;;;;;;;6.95;2.05;;;21.90;30.30;;;;;;20833242;28;20120;-56
2023/04/15 14:36:55;;;;;;;5.68;1.73;;;22.10;30.30;;;;;;20831577;28;20414;-57
2023/04/15 14:46:56;;;;;;;7.50;2.28;;;22.20;29.90;;;;;;20831665;28;20057;-57
2023/04/15 14:56:58;;;;;;;5.15;1.52;;;22.20;30.10;;;;;;20831801;28;20398;-57
2023/04/15 15:07:00;;;;;;;4.70;1.50;;;22.30;30.60;;;;;;20829646;28;20052;-57
2023/04/15 15:17:02;;;;;;;5.13;1.60;;;22.10;31.80;;;;;;20829373;28;20132;-57
2023/04/15 15:27:04;;;;;;;5.07;1.67;;;22.40;31.50;;;;;;20829068;28;20045;-58
2023/04/15 15:37:05;;;;;;;2.13;1.30;;;22.60;30.70;;;;;;20840277;28;20049;-57
2023/04/15 15:47:07;;;;;;;2.95;1.00;;;22.70;30.20;;;;;;20845598;28;20041;-58
2023/04/15 15:57:09;;;;;;;3.35;1.27;;;22.60;30.90;;;;;;20846352;28;20056;-57
2023/04/15 16:07:10;;;;;;;2.40;1.37;;;22.40;31.40;;;;;;20845075;28;20049;-56
2023/04/15 16:17:12;;;;;;;3.63;1.00;;;22.40;31.20;;;;;;20843379;28;20095;-56
2023/04/15 16:27:15;;;;;;;8.10;5.72;;;22.50;31.20;;;;;;20842159;28;20072;-57
2023/04/15 16:37:16;;;;;;;4.85;1.80;;;22.50;31.60;;;;;;20841247;28;20049;-58
2023/04/15 16:47:17;;;;;;;2.47;1.35;;;22.60;31.40;;;;;;20839881;28;20055;-56
2023/04/15 16:57:19;;;;;;;2.38;1.10;;;22.50;31.30;;;;;;20839883;28;20515;-57
2023/04/15 17:07:20;;;;;;;3.80;1.30;;;22.50;31.20;;;;;;20839930;28;20055;-58
2023/04/15 17:17:22;;;;;;;4.88;1.55;;;22.40;31.60;;;;;;20839349;28;20057;-57
2023/04/15 17:27:25;;;;;;;4.00;1.50;;;22.40;31.90;;;;;;20837447;28;20045;-57
2023/04/15 17:37:26;;;;;;;2.05;1.10;;;22.30;32.00;;;;;;20836278;28;20053;-57
2023/04/15 17:47:28;;;;;;;3.40;1.30;;;22.30;31.80;;;;;;20835629;28;20049;-58
2023/04/15 17:57:29;;;;;;;4.88;1.20;;;22.20;31.70;;;;;;20833740;28;20095;-57
2023/04/15 18:07:31;;;;;;;3.53;1.20;;;21.90;32.10;;;;;;20832959;28;20098;-58
2023/04/15 18:17:32;;;;;;;4.25;1.10;;;21.60;32.70;;;;;;20833119;28;20499;-58
2023/04/15 18:27:37;;;;;;;3.13;1.35;;;21.50;32.80;;;;;;20832975;28;20045;-56
2023/04/15 18:37:39;;;;;;;3.05;1.40;;;21.30;33.20;;;;;;20832688;28;20053;-57
2023/04/15 18:47:41;;;;;;;5.88;1.67;;;21.20;33.60;;;;;;20831602;28;20057;-56
2023/04/15 18:57:45;;;;;;;5.20;1.98;;;21.00;33.80;;;;;;20831793;28;20054;-55
2023/04/15 19:07:46;;;;;;;5.97;2.25;;;20.90;34.10;;;;;;20829439;28;20103;-56
2023/04/15 19:17:48;;;;;;;13.15;3.58;;;20.70;34.50;;;;;;20830153;28;20053;-57
2023/04/15 19:27:49;;;;;;;7.10;2.38;;;20.60;34.70;;;;;;20829712;28;20045;-58
2023/04/15 19:37:50;;;;;;;9.35;3.15;;;20.50;34.90;;;;;;20830672;28;20140;-55
2023/04/15 19:47:52;;;;;;;6.75;2.78;;;20.40;35.20;;;;;;20828698;28;20115;-56
2023/04/15 19:57:54;;;;;;;4.30;1.52;;;20.30;36.20;;;;;;20828846;28;20053;-58
2023/04/15 20:07:55;;;;;;;8.23;1.90;;;20.20;36.80;;;;;;20826793;28;20050;-57
2023/04/15 20:17:56;;;;;;;6.28;1.88;;;19.90;37.40;;;;;;20827759;28;20054;-57
2023/04/15 20:27:58;;;;;;;5.85;2.25;;;19.70;37.80;;;;;;20843516;28;20099;-57
2023/04/15 20:38:02;;;;;;;4.63;2.03;;;19.60;38.30;;;;;;20842972;28;20108;-56
2023/04/15 20:48:04;;;;;;;12.95;2.65;;;19.60;38.50;;;;;;20841025;28;20046;-57
2023/04/15 20:58:05;;;;;;;9.90;2.85;;;19.40;39.70;;;;;;20840244;28;20053;-58
2023/04/15 21:08:07;;;;;;;10.95;3.30;;;19.00;41.10;;;;;;20839580;28;20190;-57
2023/04/15 21:18:08;;;;;;;23.33;11.63;;;18.70;41.50;;;;;;20838118;28;20064;-57
2023/04/15 21:28:10;;;;;;;13.13;2.53;;;18.60;41.90;;;;;;20838786;28;20445;-57
2023/04/15 21:38:11;;;;;;;12.13;7.05;;;18.40;41.80;;;;;;20838477;28;20111;-55
2023/04/15 21:48:12;;;;;;;10.52;6.55;;;18.20;42.20;;;;;;20837339;28;20372;-55
2023/04/15 21:58:14;;;;;;;5.72;2.03;;;18.10;42.30;;;;;;20836975;28;20076;-56
2023/04/15 22:08:15;;;;;;;4.97;1.90;;;17.90;42.60;;;;;;20835053;28;20099;-56
2023/04/15 22:18:16;;;;;;;5.15;1.80;;;17.80;42.70;;;;;;20836185;28;20057;-56
2023/04/15 22:28:18;;;;;;;8.63;1.83;;;17.70;43.00;;;;;;20833556;28;20072;-57
2023/04/15 22:38:19;;;;;;;3.75;1.15;;;17.70;42.90;;;;;;20834473;28;20072;-57
2023/04/15 22:48:21;;;;;;;5.28;1.30;;;17.60;42.70;;;;;;20833057;28;20045;-58
2023/04/15 22:58:22;;;;;;;4.57;1.10;;;17.50;42.60;;;;;;20831543;28;20145;-57
2023/04/15 23:08:24;;;;;;;2.75;1.10;;;17.50;42.60;;;;;;20832066;28;20041;-57
2023/04/15 23:18:26;;;;;;;1.95;0.88;;;17.30;43.20;;;;;;20830142;28;20053;-57
2023/04/15 23:28:27;;;;;;;4.72;1.25;;;17.30;43.10;;;;;;20830939;28;20053;-55
2023/04/15 23:38:29;;;;;;;1.40;0.80;;;17.20;43.60;;;;;;20830834;28;20057;-56
2023/04/15 23:48:30;;;;;;;2.65;1.38;;;17.00;44.00;;;;;;20830375;28;20403;-55
2023/04/15 23:58:31;;;;;;;2.75;0.90;;;16.70;44.60;;;;;;20841002;28;20521;-57
